sensor_id;sensor_type;location;lat;lon;timestamp;pressure;altitude;pressure_sealevel;temperature;humidity
40592;BME280;26301;42.832;23.918;2023-03-25T00:01:11;92833.50;;;4.61;94.15
40592;BME280;26301;42.832;23.918;2023-03-25T00:03:39;92800.53;;;4.46;94.15
40592;BME280;26301;42.832;23.918;2023-03-25T00:06:18;92825.19;;;4.65;94.01
40592;BME280;26301;42.832;23.918;2023-03-25T00:08:44;92825.41;;;4.64;94.60
40592;BME280;26301;42.832;23.918;2023-03-25T00:11:28;92806.00;;;4.49;94.33
40592;BME280;26301;42.832;23.918;2023-03-25T00:13:54;92810.47;;;4.61;94.46
40592;BME280;26301;42.832;23.918;2023-03-25T00:16:20;92814.75;;;4.67;94.21
40592;BME280;26301;42.832;23.918;2023-03-25T00:18:46;92800.09;;;4.49;94.08
40592;BME280;26301;42.832;23.918;2023-03-25T00:21:12;92808.94;;;4.53;93.94
40592;BME280;26301;42.832;23.918;2023-03-25T00:23:38;92816.78;;;4.58;93.86
40592;BME280;26301;42.832;23.918;2023-03-25T00:26:06;92814.59;;;4.62;93.78
40592;BME280;26301;42.832;23.918;2023-03-25T00:28:34;92818.88;;;4.68;93.58
40592;BME280;26301;42.832;23.918;2023-03-25T00:31:09;92794.72;;;4.57;93.34
40592;BME280;26301;42.832;23.918;2023-03-25T00:33:36;92793.16;;;4.56;93.52
40592;BME280;26301;42.832;23.918;2023-03-25T00:36:02;92778.69;;;4.43;93.59
40592;BME280;26301;42.832;23.918;2023-03-25T00:38:32;92797.13;;;4.52;93.50
40592;BME280;26301;42.832;23.918;2023-03-25T00:41:27;92807.50;;;4.57;93.46
40592;BME280;26301;42.832;23.918;2023-03-25T00:44:02;92801.44;;;4.58;93.06
40592;BME280;26301;42.832;23.918;2023-03-25T00:46:30;92762.41;;;4.38;93.01
40592;BME280;26301;42.832;23.918;2023-03-25T00:48:57;92792.56;;;4.54;93.31
40592;BME280;26301;42.832;23.918;2023-03-25T00:51:24;92764.00;;;4.32;94.29
40592;BME280;26301;42.832;23.918;2023-03-25T00:53:52;92790.28;;;4.46;94.32
40592;BME280;26301;42.832;23.918;2023-03-25T00:56:19;92781.03;;;4.45;94.36
40592;BME280;26301;42.832;23.918;2023-03-25T00:58:45;92767.75;;;4.29;94.49
40592;BME280;26301;42.832;23.918;2023-03-25T01:01:13;92777.91;;;4.43;95.27
40592;BME280;26301;42.832;23.918;2023-03-25T01:03:40;92768.88;;;4.40;94.81
40592;BME280;26301;42.832;23.918;2023-03-25T01:06:17;92757.69;;;4.34;94.82
40592;BME280;26301;42.832;23.918;2023-03-25T01:08:46;92758.06;;;4.38;94.22
40592;BME280;26301;42.832;23.918;2023-03-25T01:11:20;92768.06;;;4.46;94.20
40592;BME280;26301;42.832;23.918;2023-03-25T01:13:46;92733.38;;;4.25;94.36
40592;BME280;26301;42.832;23.918;2023-03-25T01:16:12;92734.91;;;4.26;94.47
40592;BME280;26301;42.832;23.918;2023-03-25T01:18:38;92760.97;;;4.42;94.33
40592;BME280;26301;42.832;23.918;2023-03-25T01:21:06;92729.81;;;4.26;94.53
40592;BME280;26301;42.832;23.918;2023-03-25T01:23:32;92761.38;;;4.45;93.95
40592;BME280;26301;42.832;23.918;2023-03-25T01:25:58;92737.25;;;4.34;93.69
40592;BME280;26301;42.832;23.918;2023-03-25T01:28:25;92758.19;;;4.50;94.19
40592;BME280;26301;42.832;23.918;2023-03-25T01:30:59;92751.50;;;4.49;93.95
40592;BME280;26301;42.832;23.918;2023-03-25T01:33:25;92685.91;;;4.04;94.21
40592;BME280;26301;42.832;23.918;2023-03-25T01:35:51;92730.72;;;4.39;93.94
40592;BME280;26301;42.832;23.918;2023-03-25T01:38:18;92740.50;;;4.48;94.82
40592;BME280;26301;42.832;23.918;2023-03-25T01:40:47;92743.25;;;4.47;96.11
40592;BME280;26301;42.832;23.918;2023-03-25T01:43:16;92718.69;;;4.46;95.43
40592;BME280;26301;42.832;23.918;2023-03-25T01:45:43;92722.78;;;4.47;95.93
40592;BME280;26301;42.832;23.918;2023-03-25T01:50:51;92695.38;;;4.54;96.33
40592;BME280;26301;42.832;23.918;2023-03-25T01:53:17;92715.13;;;4.72;96.34
40592;BME280;26301;42.832;23.918;2023-03-25T01:55:43;92698.63;;;4.68;95.62
40592;BME280;26301;42.832;23.918;2023-03-25T01:58:12;92685.69;;;4.88;94.28
40592;BME280;26301;42.832;23.918;2023-03-25T02:00:41;92703.81;;;5.04;92.98
40592;BME280;26301;42.832;23.918;2023-03-25T02:03:09;92702.56;;;5.32;91.53
40592;BME280;26301;42.832;23.918;2023-03-25T02:08:40;92668.28;;;5.33;92.19
40592;BME280;26301;42.832;23.918;2023-03-25T02:11:08;92686.72;;;5.42;91.60
40592;BME280;26301;42.832;23.918;2023-03-25T02:13:35;92703.13;;;5.53;91.50
40592;BME280;26301;42.832;23.918;2023-03-25T02:16:39;92698.56;;;5.55;91.08
40592;BME280;26301;42.832;23.918;2023-03-25T02:44:11;92694.97;;;5.74;87.87
40592;BME280;26301;42.832;23.918;2023-03-25T02:46:42;92683.41;;;5.53;88.29
40592;BME280;26301;42.832;23.918;2023-03-25T02:49:19;92684.41;;;5.52;88.47
40592;BME280;26301;42.832;23.918;2023-03-25T02:52:13;92668.34;;;5.45;88.63
40592;BME280;26301;42.832;23.918;2023-03-25T02:54:38;92668.63;;;5.37;88.96
40592;BME280;26301;42.832;23.918;2023-03-25T02:57:07;92690.41;;;5.46;88.92
40592;BME280;26301;42.832;23.918;2023-03-25T02:59:36;92688.19;;;5.49;89.28
40592;BME280;26301;42.832;23.918;2023-03-25T03:02:08;92689.97;;;5.49;89.08
40592;BME280;26301;42.832;23.918;2023-03-25T03:04:50;92666.50;;;5.34;88.87
40592;BME280;26301;42.832;23.918;2023-03-25T03:07:27;92691.84;;;5.42;88.86
40592;BME280;26301;42.832;23.918;2023-03-25T03:10:17;92658.59;;;5.35;88.64
40592;BME280;26301;42.832;23.918;2023-03-25T03:13:12;92672.41;;;5.34;89.47
40592;BME280;26301;42.832;23.918;2023-03-25T03:15:55;92675.97;;;5.33;89.79
40592;BME280;26301;42.832;23.918;2023-03-25T03:18:42;92642.38;;;5.04;90.66
40592;BME280;26301;42.832;23.918;2023-03-25T03:23:50;92683.00;;;5.19;90.75
40592;BME280;26301;42.832;23.918;2023-03-25T03:26:43;92679.84;;;5.17;91.47
40592;BME280;26301;42.832;23.918;2023-03-25T03:29:27;92669.75;;;5.04;90.57
40592;BME280;26301;42.832;23.918;2023-03-25T03:32:05;92678.94;;;5.12;90.65
40592;BME280;26301;42.832;23.918;2023-03-25T03:34:38;92677.72;;;5.14;90.68
40592;BME280;26301;42.832;23.918;2023-03-25T03:37:11;92674.88;;;5.04;90.14
40592;BME280;26301;42.832;23.918;2023-03-25T03:39:41;92691.78;;;5.05;90.15
40592;BME280;26301;42.832;23.918;2023-03-25T03:42:54;92689.47;;;5.03;90.33
40592;BME280;26301;42.832;23.918;2023-03-25T03:45:39;92684.44;;;4.90;89.95
40592;BME280;26301;42.832;23.918;2023-03-25T03:48:35;92687.59;;;4.92;90.16
40592;BME280;26301;42.832;23.918;2023-03-25T03:51:05;92694.91;;;4.89;90.33
40592;BME280;26301;42.832;23.918;2023-03-25T03:53:47;92670.22;;;4.76;90.74
40592;BME280;26301;42.832;23.918;2023-03-25T03:56:22;92684.16;;;4.80;90.67
40592;BME280;26301;42.832;23.918;2023-03-25T03:58:52;92685.34;;;4.77;90.75
40592;BME280;26301;42.832;23.918;2023-03-25T04:01:31;92675.81;;;4.66;91.16
40592;BME280;26301;42.832;23.918;2023-03-25T04:04:02;92694.88;;;4.70;92.14
40592;BME280;26301;42.832;23.918;2023-03-25T04:06:43;92690.19;;;4.67;92.41
40592;BME280;26301;42.832;23.918;2023-03-25T04:11:54;92691.38;;;4.65;94.14
40592;BME280;26301;42.832;23.918;2023-03-25T04:14:24;92697.16;;;4.53;94.48
40592;BME280;26301;42.832;23.918;2023-03-25T04:16:50;92675.44;;;4.38;95.09
40592;BME280;26301;42.832;23.918;2023-03-25T04:19:18;92671.38;;;4.30;95.28
40592;BME280;26301;42.832;23.918;2023-03-25T04:21:44;92708.97;;;4.54;95.42
40592;BME280;26301;42.832;23.918;2023-03-25T04:24:12;92677.78;;;4.39;95.29
40592;BME280;26301;42.832;23.918;2023-03-25T04:26:41;92685.47;;;4.39;95.79
40592;BME280;26301;42.832;23.918;2023-03-25T04:29:07;92674.72;;;4.30;95.55
40592;BME280;26301;42.832;23.918;2023-03-25T04:31:34;92699.94;;;4.52;95.22
40592;BME280;26301;42.832;23.918;2023-03-25T04:34:00;92687.47;;;4.37;96.50
40592;BME280;26301;42.832;23.918;2023-03-25T04:36:26;92712.88;;;4.57;96.29
40592;BME280;26301;42.832;23.918;2023-03-25T04:39:02;92690.56;;;4.39;95.83
40592;BME280;26301;42.832;23.918;2023-03-25T04:41:28;92690.63;;;4.32;96.63
40592;BME280;26301;42.832;23.918;2023-03-25T04:43:53;92708.88;;;4.43;97.67
40592;BME280;26301;42.832;23.918;2023-03-25T04:46:19;92712.97;;;4.44;98.38
40592;BME280;26301;42.832;23.918;2023-03-25T04:48:45;92703.22;;;4.34;98.58
40592;BME280;26301;42.832;23.918;2023-03-25T04:51:12;92712.56;;;4.47;99.56
40592;BME280;26301;42.832;23.918;2023-03-25T04:53:39;92712.78;;;4.45;99.75
40592;BME280;26301;42.832;23.918;2023-03-25T04:56:15;92688.44;;;4.36;100.00
40592;BME280;26301;42.832;23.918;2023-03-25T04:58:44;92732.50;;;4.63;99.89
40592;BME280;26301;42.832;23.918;2023-03-25T05:01:39;92724.53;;;4.78;100.00
40592;BME280;26301;42.832;23.918;2023-03-25T05:04:10;92707.34;;;4.85;100.00
40592;BME280;26301;42.832;23.918;2023-03-25T05:06:43;92726.38;;;5.14;100.00
40592;BME280;26301;42.832;23.918;2023-03-25T05:09:18;92728.38;;;5.31;100.00
40592;BME280;26301;42.832;23.918;2023-03-25T05:11:44;92732.31;;;5.52;100.00
40592;BME280;26301;42.832;23.918;2023-03-25T05:14:12;92715.56;;;5.67;98.49
40592;BME280;26301;42.832;23.918;2023-03-25T05:16:38;92725.38;;;5.89;99.77
40592;BME280;26301;42.832;23.918;2023-03-25T05:19:05;92728.53;;;6.21;99.25
40592;BME280;26301;42.832;23.918;2023-03-25T05:21:33;92740.88;;;6.43;97.49
40592;BME280;26301;42.832;23.918;2023-03-25T05:24:06;92730.97;;;6.58;96.53
40592;BME280;26301;42.832;23.918;2023-03-25T05:26:33;92732.38;;;6.84;96.62
40592;BME280;26301;42.832;23.918;2023-03-25T05:29:00;92725.91;;;7.05;96.27
40592;BME280;26301;42.832;23.918;2023-03-25T05:31:27;92730.59;;;7.31;96.25
40592;BME280;26301;42.832;23.918;2023-03-25T05:33:52;92730.47;;;7.50;93.15
40592;BME280;26301;42.832;23.918;2023-03-25T05:36:19;92717.22;;;7.70;93.24
40592;BME280;26301;42.832;23.918;2023-03-25T05:38:45;92725.00;;;7.98;90.84
40592;BME280;26301;42.832;23.918;2023-03-25T05:41:13;92726.25;;;8.24;92.65
40592;BME280;26301;42.832;23.918;2023-03-25T05:43:43;92700.13;;;8.33;94.87
40592;BME280;26301;42.832;23.918;2023-03-25T05:46:12;92715.03;;;8.76;91.05
40592;BME280;26301;42.832;23.918;2023-03-25T05:48:39;92725.25;;;9.05;90.69
40592;BME280;26301;42.832;23.918;2023-03-25T05:51:12;92719.84;;;9.23;91.34
40592;BME280;26301;42.832;23.918;2023-03-25T05:53:44;92725.41;;;9.54;89.82
40592;BME280;26301;42.832;23.918;2023-03-25T05:56:17;92705.50;;;9.71;91.38
40592;BME280;26301;42.832;23.918;2023-03-25T05:58:44;92717.63;;;10.15;90.20
40592;BME280;26301;42.832;23.918;2023-03-25T06:01:11;92724.31;;;10.38;89.02
40592;BME280;26301;42.832;23.918;2023-03-25T06:03:41;92721.16;;;10.58;84.70
40592;BME280;26301;42.832;23.918;2023-03-25T06:06:08;92724.00;;;10.88;87.72
40592;BME280;26301;42.832;23.918;2023-03-25T06:08:48;92717.78;;;11.21;74.13
40592;BME280;26301;42.832;23.918;2023-03-25T06:11:18;92694.34;;;11.38;72.00
40592;BME280;26301;42.832;23.918;2023-03-25T06:13:45;92723.59;;;11.86;71.54
40592;BME280;26301;42.832;23.918;2023-03-25T06:16:19;92708.94;;;12.18;58.99
40592;BME280;26301;42.832;23.918;2023-03-25T06:18:49;92705.91;;;12.46;58.16
40592;BME280;26301;42.832;23.918;2023-03-25T06:21:24;92701.53;;;12.67;57.75
40592;BME280;26301;42.832;23.918;2023-03-25T06:23:51;92702.06;;;12.85;57.77
40592;BME280;26301;42.832;23.918;2023-03-25T06:26:18;92715.25;;;13.14;58.34
40592;BME280;26301;42.832;23.918;2023-03-25T06:28:45;92710.34;;;13.38;56.14
40592;BME280;26301;42.832;23.918;2023-03-25T06:31:18;92724.28;;;13.72;52.68
40592;BME280;26301;42.832;23.918;2023-03-25T06:33:46;92709.97;;;13.85;50.63
40592;BME280;26301;42.832;23.918;2023-03-25T06:36:13;92728.59;;;14.03;53.63
40592;BME280;26301;42.832;23.918;2023-03-25T06:38:45;92704.69;;;14.06;50.75
40592;BME280;26301;42.832;23.918;2023-03-25T06:41:11;92718.84;;;14.34;53.35
40592;BME280;26301;42.832;23.918;2023-03-25T06:43:38;92702.97;;;14.40;53.85
40592;BME280;26301;42.832;23.918;2023-03-25T06:46:05;92731.34;;;14.76;51.61
40592;BME280;26301;42.832;23.918;2023-03-25T06:48:31;92726.34;;;14.90;51.79
40592;BME280;26301;42.832;23.918;2023-03-25T06:50:57;92738.41;;;15.10;52.34
40592;BME280;26301;42.832;23.918;2023-03-25T06:53:23;92709.25;;;15.13;47.74
40592;BME280;26301;42.832;23.918;2023-03-25T06:55:49;92735.00;;;15.44;49.09
40592;BME280;26301;42.832;23.918;2023-03-25T06:58:14;92739.75;;;15.66;50.54
40592;BME280;26301;42.832;23.918;2023-03-25T07:00:40;92718.91;;;15.66;47.27
40592;BME280;26301;42.832;23.918;2023-03-25T07:03:06;92721.59;;;15.85;47.98
40592;BME280;26301;42.832;23.918;2023-03-25T07:05:32;92740.50;;;16.19;46.44
40592;BME280;26301;42.832;23.918;2023-03-25T07:07:57;92736.00;;;16.25;45.63
40592;BME280;26301;42.832;23.918;2023-03-25T07:10:23;92732.06;;;16.28;44.76
40592;BME280;26301;42.832;23.918;2023-03-25T07:12:49;92720.75;;;16.37;45.88
40592;BME280;26301;42.832;23.918;2023-03-25T07:15:15;92743.03;;;16.67;44.84
40592;BME280;26301;42.832;23.918;2023-03-25T07:17:43;92738.13;;;16.85;45.54
40592;BME280;26301;42.832;23.918;2023-03-25T07:20:09;92720.78;;;16.94;41.86
40592;BME280;26301;42.832;23.918;2023-03-25T07:22:35;92743.47;;;17.26;41.01
40592;BME280;26301;42.832;23.918;2023-03-25T07:25:01;92732.97;;;17.31;40.38
40592;BME280;26301;42.832;23.918;2023-03-25T07:27:27;92736.78;;;17.39;40.14
40592;BME280;26301;42.832;23.918;2023-03-25T07:29:53;92741.69;;;17.41;41.08
40592;BME280;26301;42.832;23.918;2023-03-25T07:32:20;92747.72;;;17.55;39.84
40592;BME280;26301;42.832;23.918;2023-03-25T07:34:45;92735.56;;;17.64;39.96
40592;BME280;26301;42.832;23.918;2023-03-25T07:37:11;92693.16;;;17.40;42.32
40592;BME280;26301;42.832;23.918;2023-03-25T07:39:37;92738.19;;;17.78;40.29
40592;BME280;26301;42.832;23.918;2023-03-25T07:42:05;92663.56;;;17.30;40.21
40592;BME280;26301;42.832;23.918;2023-03-25T07:44:31;92720.97;;;17.77;38.81
40592;BME280;26301;42.832;23.918;2023-03-25T07:46:56;92730.38;;;17.92;42.34
40592;BME280;26301;42.832;23.918;2023-03-25T07:49:22;92716.25;;;17.93;39.19
40592;BME280;26301;42.832;23.918;2023-03-25T07:51:48;92746.75;;;18.25;39.54
40592;BME280;26301;42.832;23.918;2023-03-25T07:54:14;92742.28;;;18.25;40.15
40592;BME280;26301;42.832;23.918;2023-03-25T07:56:40;92733.38;;;18.26;39.09
40592;BME280;26301;42.832;23.918;2023-03-25T07:59:06;92734.75;;;18.24;38.38
40592;BME280;26301;42.832;23.918;2023-03-25T08:01:34;92715.28;;;18.30;36.77
40592;BME280;26301;42.832;23.918;2023-03-25T08:03:59;92721.28;;;18.44;37.26
40592;BME280;26301;42.832;23.918;2023-03-25T08:06:25;92709.03;;;18.54;38.33
40592;BME280;26301;42.832;23.918;2023-03-25T08:08:51;92721.59;;;18.79;38.68
40592;BME280;26301;42.832;23.918;2023-03-25T08:11:17;92695.75;;;18.78;37.21
40592;BME280;26301;42.832;23.918;2023-03-25T08:13:42;92731.56;;;19.13;38.95
40592;BME280;26301;42.832;23.918;2023-03-25T08:16:12;92707.41;;;19.16;38.68
40592;BME280;26301;42.832;23.918;2023-03-25T08:18:39;92721.72;;;19.19;35.79
40592;BME280;26301;42.832;23.918;2023-03-25T08:21:10;92712.03;;;19.42;35.06
40592;BME280;26301;42.832;23.918;2023-03-25T08:23:36;92706.94;;;19.46;34.85
40592;BME280;26301;42.832;23.918;2023-03-25T08:26:02;92725.66;;;19.61;33.69
40592;BME280;26301;42.832;23.918;2023-03-25T08:28:30;92696.78;;;19.44;35.26
40592;BME280;26301;42.832;23.918;2023-03-25T08:30:56;92679.06;;;19.18;34.45
40592;BME280;26301;42.832;23.918;2023-03-25T08:33:25;92699.84;;;19.15;35.33
40592;BME280;26301;42.832;23.918;2023-03-25T08:36:00;92725.72;;;19.39;36.10
40592;BME280;26301;42.832;23.918;2023-03-25T08:38:26;92710.69;;;19.53;34.47
40592;BME280;26301;42.832;23.918;2023-03-25T08:40:56;92714.50;;;19.70;35.79
40592;BME280;26301;42.832;23.918;2023-03-25T08:43:24;92720.84;;;19.77;34.19
40592;BME280;26301;42.832;23.918;2023-03-25T08:45:50;92704.09;;;19.56;34.28
40592;BME280;26301;42.832;23.918;2023-03-25T08:48:16;92707.59;;;19.82;36.22
40592;BME280;26301;42.832;23.918;2023-03-25T08:50:45;92657.06;;;19.51;35.20
40592;BME280;26301;42.832;23.918;2023-03-25T08:53:11;92693.19;;;19.62;35.50
40592;BME280;26301;42.832;23.918;2023-03-25T08:55:37;92712.69;;;19.79;34.35
40592;BME280;26301;42.832;23.918;2023-03-25T08:58:05;92727.88;;;19.99;33.88
40592;BME280;26301;42.832;23.918;2023-03-25T09:00:34;92711.06;;;19.92;35.47
40592;BME280;26301;42.832;23.918;2023-03-25T09:03:03;92704.69;;;19.84;34.48
40592;BME280;26301;42.832;23.918;2023-03-25T09:05:29;92695.72;;;19.68;33.65
40592;BME280;26301;42.832;23.918;2023-03-25T09:07:55;92705.84;;;19.38;33.85
40592;BME280;26301;42.832;23.918;2023-03-25T09:10:21;92698.97;;;19.51;37.26
40592;BME280;26301;42.832;23.918;2023-03-25T09:12:46;92706.28;;;19.94;37.02
40592;BME280;26301;42.832;23.918;2023-03-25T09:15:12;92700.19;;;20.16;36.02
40592;BME280;26301;42.832;23.918;2023-03-25T09:17:38;92714.69;;;20.13;34.50
40592;BME280;26301;42.832;23.918;2023-03-25T09:20:05;92707.75;;;20.17;34.68
40592;BME280;26301;42.832;23.918;2023-03-25T09:22:40;92672.56;;;19.70;36.56
40592;BME280;26301;42.832;23.918;2023-03-25T09:25:11;92684.66;;;19.57;35.54
40592;BME280;26301;42.832;23.918;2023-03-25T09:27:41;92690.78;;;19.44;34.23
40592;BME280;26301;42.832;23.918;2023-03-25T09:30:07;92706.72;;;19.56;35.48
40592;BME280;26301;42.832;23.918;2023-03-25T09:32:34;92700.28;;;19.39;35.34
40592;BME280;26301;42.832;23.918;2023-03-25T09:35:00;92703.63;;;19.31;35.67
40592;BME280;26301;42.832;23.918;2023-03-25T09:37:25;92701.97;;;19.13;36.58
40592;BME280;26301;42.832;23.918;2023-03-25T09:39:51;92695.81;;;19.09;36.43
40592;BME280;26301;42.832;23.918;2023-03-25T09:45:24;92691.00;;;19.56;37.13
40592;BME280;26301;42.832;23.918;2023-03-25T09:50:29;92684.50;;;19.53;35.06
40592;BME280;26301;42.832;23.918;2023-03-25T09:55:41;92688.47;;;19.73;36.64
40592;BME280;26301;42.832;23.918;2023-03-25T09:58:27;92691.56;;;19.75;34.84
40592;BME280;26301;42.832;23.918;2023-03-25T10:04:14;92653.94;;;19.71;38.79
40592;BME280;26301;42.832;23.918;2023-03-25T10:09:58;92664.66;;;19.92;34.61
40592;BME280;26301;42.832;23.918;2023-03-25T10:12:54;92660.72;;;19.72;35.60
40592;BME280;26301;42.832;23.918;2023-03-25T10:23:59;92658.50;;;20.05;35.62
40592;BME280;26301;42.832;23.918;2023-03-25T10:29:20;92631.34;;;19.93;36.30
40592;BME280;26301;42.832;23.918;2023-03-25T10:31:53;92632.28;;;19.97;36.67
40592;BME280;26301;42.832;23.918;2023-03-25T10:34:42;92628.56;;;19.89;34.01
40592;BME280;26301;42.832;23.918;2023-03-25T10:37:12;92650.94;;;19.95;34.61
40592;BME280;26301;42.832;23.918;2023-03-25T10:39:42;92641.88;;;20.01;35.49
40592;BME280;26301;42.832;23.918;2023-03-25T10:42:25;92634.28;;;20.00;35.36
40592;BME280;26301;42.832;23.918;2023-03-25T10:44:52;92630.91;;;20.08;35.76
40592;BME280;26301;42.832;23.918;2023-03-25T10:47:23;92618.72;;;20.12;34.02
40592;BME280;26301;42.832;23.918;2023-03-25T10:49:50;92630.00;;;20.13;34.68
40592;BME280;26301;42.832;23.918;2023-03-25T10:52:17;92620.94;;;20.19;35.13
40592;BME280;26301;42.832;23.918;2023-03-25T10:54:45;92615.84;;;20.22;34.00
40592;BME280;26301;42.832;23.918;2023-03-25T10:57:39;92622.16;;;20.30;34.40
40592;BME280;26301;42.832;23.918;2023-03-25T11:00:16;92599.63;;;20.12;34.90
40592;BME280;26301;42.832;23.918;2023-03-25T11:02:44;92601.00;;;20.09;34.34
40592;BME280;26301;42.832;23.918;2023-03-25T11:05:20;92594.63;;;19.84;35.73
40592;BME280;26301;42.832;23.918;2023-03-25T11:07:54;92608.09;;;20.08;34.23
40592;BME280;26301;42.832;23.918;2023-03-25T11:10:25;92585.88;;;19.97;36.99
40592;BME280;26301;42.832;23.918;2023-03-25T11:13:10;92590.97;;;19.94;34.61
40592;BME280;26301;42.832;23.918;2023-03-25T11:15:38;92585.72;;;20.02;36.61
40592;BME280;26301;42.832;23.918;2023-03-25T11:18:14;92597.47;;;20.14;34.54
40592;BME280;26301;42.832;23.918;2023-03-25T11:20:52;92577.25;;;20.05;38.96
40592;BME280;26301;42.832;23.918;2023-03-25T11:23:55;92594.69;;;20.01;34.70
40592;BME280;26301;42.832;23.918;2023-03-25T11:26:35;92585.13;;;20.14;35.49
40592;BME280;26301;42.832;23.918;2023-03-25T14:01:01;92530.66;;;17.98;42.61
40592;BME280;26301;42.832;23.918;2023-03-25T14:09:50;92522.91;;;17.93;42.20
40592;BME280;26301;42.832;23.918;2023-03-25T14:12:45;92513.53;;;17.92;41.37
40592;BME280;26301;42.832;23.918;2023-03-25T14:15:26;92499.72;;;17.91;42.25
40592;BME280;26301;42.832;23.918;2023-03-25T14:17:54;92514.47;;;18.10;42.07
40592;BME280;26301;42.832;23.918;2023-03-25T14:20:28;92506.72;;;18.04;42.91
40592;BME280;26301;42.832;23.918;2023-03-25T14:23:00;92511.34;;;18.08;42.81
40592;BME280;26301;42.832;23.918;2023-03-25T14:28:02;92501.81;;;18.03;42.05
40592;BME280;26301;42.832;23.918;2023-03-25T14:30:30;92510.00;;;18.10;40.89
40592;BME280;26301;42.832;23.918;2023-03-25T14:32:56;92501.16;;;17.97;41.69
40592;BME280;26301;42.832;23.918;2023-03-25T14:43:25;92523.75;;;18.02;42.51
40592;BME280;26301;42.832;23.918;2023-03-25T14:46:04;92529.03;;;17.88;42.09
40592;BME280;26301;42.832;23.918;2023-03-25T14:49:09;92530.66;;;17.06;43.49
40592;BME280;26301;42.832;23.918;2023-03-25T14:51:45;92543.97;;;16.91;44.54
40592;BME280;26301;42.832;23.918;2023-03-25T14:54:31;92547.72;;;16.85;45.17
40592;BME280;26301;42.832;23.918;2023-03-25T14:56:59;92543.72;;;16.74;45.26
40592;BME280;26301;42.832;23.918;2023-03-25T14:59:32;92550.06;;;16.67;45.89
40592;BME280;26301;42.832;23.918;2023-03-25T15:02:14;92534.75;;;16.47;46.58
40592;BME280;26301;42.832;23.918;2023-03-25T15:04:42;92550.22;;;16.57;46.28
40592;BME280;26301;42.832;23.918;2023-03-25T15:07:16;92535.34;;;16.44;45.89
40592;BME280;26301;42.832;23.918;2023-03-25T15:09:51;92543.53;;;16.51;46.42
40592;BME280;26301;42.832;23.918;2023-03-25T15:12:20;92545.69;;;16.49;46.66
40592;BME280;26301;42.832;23.918;2023-03-25T15:14:49;92557.56;;;16.55;47.71
40592;BME280;26301;42.832;23.918;2023-03-25T15:22:36;92577.59;;;16.41;48.27
40592;BME280;26301;42.832;23.918;2023-03-25T15:25:13;92569.16;;;16.30;47.28
40592;BME280;26301;42.832;23.918;2023-03-25T15:27:51;92578.09;;;16.24;48.19
40592;BME280;26301;42.832;23.918;2023-03-25T15:30:53;92574.38;;;16.11;50.07
40592;BME280;26301;42.832;23.918;2023-03-25T15:41:10;92506.69;;;15.73;59.55
40592;BME280;26301;42.832;23.918;2023-03-25T15:49:57;92511.78;;;15.41;63.37
40592;BME280;26301;42.832;23.918;2023-03-25T15:52:57;92517.38;;;15.29;68.23
40592;BME280;26301;42.832;23.918;2023-03-25T15:58:02;92517.00;;;15.17;72.01
40592;BME280;26301;42.832;23.918;2023-03-25T16:00:36;92489.38;;;14.97;72.31
40592;BME280;26301;42.832;23.918;2023-03-25T16:03:16;92500.72;;;15.06;71.65
40592;BME280;26301;42.832;23.918;2023-03-25T16:05:51;92503.13;;;15.02;71.17
40592;BME280;26301;42.832;23.918;2023-03-25T16:08:30;92492.13;;;14.86;70.43
40592;BME280;26301;42.832;23.918;2023-03-25T16:11:33;92505.22;;;15.00;72.28
40592;BME280;26301;42.832;23.918;2023-03-25T16:14:10;92510.16;;;15.02;72.67
40592;BME280;26301;42.832;23.918;2023-03-25T16:16:40;92506.16;;;14.85;72.32
40592;BME280;26301;42.832;23.918;2023-03-25T16:19:13;92514.16;;;14.89;73.84
40592;BME280;26301;42.832;23.918;2023-03-25T16:21:40;92488.06;;;14.75;73.59
40592;BME280;26301;42.832;23.918;2023-03-25T16:24:08;92507.53;;;14.78;72.52
40592;BME280;26301;42.832;23.918;2023-03-25T16:26:39;92495.13;;;14.70;71.85
40592;BME280;26301;42.832;23.918;2023-03-25T16:29:11;92498.88;;;14.58;73.61
40592;BME280;26301;42.832;23.918;2023-03-25T16:31:48;92488.97;;;14.31;75.43
40592;BME280;26301;42.832;23.918;2023-03-25T16:34:15;92493.09;;;14.03;76.31
40592;BME280;26301;42.832;23.918;2023-03-25T16:36:43;92470.19;;;13.76;77.29
40592;BME280;26301;42.832;23.918;2023-03-25T16:39:16;92440.78;;;13.52;78.55
40592;BME280;26301;42.832;23.918;2023-03-25T16:41:51;92479.28;;;13.73;79.11
40592;BME280;26301;42.832;23.918;2023-03-25T16:44:21;92475.72;;;13.64;79.30
40592;BME280;26301;42.832;23.918;2023-03-25T16:46:48;92494.41;;;13.61;80.58
40592;BME280;26301;42.832;23.918;2023-03-25T16:49:23;92490.84;;;13.47;81.66
40592;BME280;26301;42.832;23.918;2023-03-25T16:51:51;92474.31;;;13.33;81.02
40592;BME280;26301;42.832;23.918;2023-03-25T16:54:26;92491.16;;;13.35;81.53
40592;BME280;26301;42.832;23.918;2023-03-25T16:56:52;92473.84;;;13.25;81.47
40592;BME280;26301;42.832;23.918;2023-03-25T17:01:58;92476.44;;;13.25;81.00
40592;BME280;26301;42.832;23.918;2023-03-25T17:04:38;92458.03;;;13.17;80.20
40592;BME280;26301;42.832;23.918;2023-03-25T17:07:16;92467.91;;;13.15;80.44
40592;BME280;26301;42.832;23.918;2023-03-25T17:09:48;92458.34;;;13.10;79.58
40592;BME280;26301;42.832;23.918;2023-03-25T17:12:19;92463.75;;;13.19;79.22
40592;BME280;26301;42.832;23.918;2023-03-25T17:14:47;92452.91;;;13.07;79.21
40592;BME280;26301;42.832;23.918;2023-03-25T17:19:50;92441.31;;;12.89;78.30
40592;BME280;26301;42.832;23.918;2023-03-25T17:34:09;92474.53;;;13.46;73.43
40592;BME280;26301;42.832;23.918;2023-03-25T17:36:35;92458.84;;;13.12;73.82
40592;BME280;26301;42.832;23.918;2023-03-25T17:39:04;92471.59;;;13.09;74.21
40592;BME280;26301;42.832;23.918;2023-03-25T17:41:37;92470.91;;;12.77;74.37
40592;BME280;26301;42.832;23.918;2023-03-25T17:44:09;92464.47;;;12.54;74.19